首页
METAR-TAF:

METAR-TAF

机场 :

Muscle Shoals, 阿拉巴马州, 美国

纬度: 34-44-38N, 经度: 087-35-58W, 海拔: 167米

当前天气观测

该预报发布于36分钟前的05:53 UTC
风速3节,风向东南
温度 22°C
湿度 88%
气压 1018 hPa
能見度: 16.1公里
天空无云

METAR: KMSL 270553Z AUTO 14003KT 10SM CLR 22/20 A3007 RMK AO2 SLP174 T02220200 10328 20222 403670200 58003

时间: 01:29 (06:29 UTC)

预报

该预报发布于1小时和3分钟前的05:26 UTC
预报有效从27日的 06点(UTC)到 28日的 06点(UTC)
风速4节,风向西南
能見度: 10公里
少量云层高于25000英尺
从 27日的 1600点(UTC)
风速9节,风向西转西南,有时为16节阵风
能見度: 10公里
散云层高于5000英尺
多云层高于25000英尺
从 28日的 0100点(UTC)
风速4节,风向南转西南
能見度: 10公里
多云层高于20000英尺

TAF: KMSL 270526Z 2706/2806 22004KT P6SM FEW250 FM271600 24009G16KT P6SM SCT050 BKN250 FM280100 21004KT P6SM BKN200

超过4000个机场的气象观测和天气预报(METAR&TAF报告)。

可查询的气象台以黄色和红色小点在地图上表示。

将鼠标移到小点上方,可查看气象台名称。

然后点击查看天气观测和预报。

如需切换地图:点击带黑十字的绿色按钮放大地图;点击带横线的绿色按钮缩小地图;或者点击绿色箭头查看邻近地区的地图。


METAR-TAF: